sensor_id;sensor_type;location;lat;lon;timestamp;pressure;altitude;pressure_sealevel;temperature;humidity
68179;BME280;69812;42.632;23.440;2023-06-26T00:00:41;94884.06;;;18.93;80.51
68179;BME280;69812;42.632;23.440;2023-06-26T00:03:07;94892.41;;;18.82;81.44
68179;BME280;69812;42.632;23.440;2023-06-26T00:05:34;94877.44;;;18.91;80.83
68179;BME280;69812;42.632;23.440;2023-06-26T00:08:00;94881.31;;;19.01;80.58
68179;BME280;69812;42.632;23.440;2023-06-26T00:10:28;94874.75;;;19.05;80.38
68179;BME280;69812;42.632;23.440;2023-06-26T00:12:54;94881.06;;;18.90;80.47
68179;BME280;69812;42.632;23.440;2023-06-26T00:15:19;94866.41;;;18.82;80.92
68179;BME280;69812;42.632;23.440;2023-06-26T00:17:47;94881.47;;;18.93;81.16
68179;BME280;69812;42.632;23.440;2023-06-26T00:20:12;94870.84;;;18.88;81.17
68179;BME280;69812;42.632;23.440;2023-06-26T00:22:44;94871.28;;;18.92;81.47
68179;BME280;69812;42.632;23.440;2023-06-26T00:25:10;94873.22;;;18.83;81.24
68179;BME280;69812;42.632;23.440;2023-06-26T00:27:37;94876.53;;;18.77;81.50
68179;BME280;69812;42.632;23.440;2023-06-26T00:30:06;94868.75;;;18.77;81.60
68179;BME280;69812;42.632;23.440;2023-06-26T00:32:31;94866.41;;;18.82;81.56
68179;BME280;69812;42.632;23.440;2023-06-26T00:34:59;94867.34;;;18.74;81.72
68179;BME280;69812;42.632;23.440;2023-06-26T00:37:27;94881.06;;;18.90;81.14
68179;BME280;69812;42.632;23.440;2023-06-26T00:39:52;94871.59;;;18.82;81.00
68179;BME280;69812;42.632;23.440;2023-06-26T00:42:17;94876.00;;;18.81;81.79
68179;BME280;69812;42.632;23.440;2023-06-26T00:44:43;94868.03;;;18.83;81.53
68179;BME280;69812;42.632;23.440;2023-06-26T00:47:10;94863.41;;;18.78;81.05
68179;BME280;69812;42.632;23.440;2023-06-26T00:49:38;94865.53;;;18.75;81.89
68179;BME280;69812;42.632;23.440;2023-06-26T00:52:06;94869.81;;;18.82;81.60
68179;BME280;69812;42.632;23.440;2023-06-26T00:54:33;94872.13;;;18.77;81.39
68179;BME280;69812;42.632;23.440;2023-06-26T00:56:59;94866.88;;;18.92;80.78
68179;BME280;69812;42.632;23.440;2023-06-26T00:59:24;94875.06;;;18.89;80.82
68179;BME280;69812;42.632;23.440;2023-06-26T01:01:50;94863.44;;;18.85;81.10
68179;BME280;69812;42.632;23.440;2023-06-26T01:04:15;94862.44;;;18.86;81.22
68179;BME280;69812;42.632;23.440;2023-06-26T01:06:47;94853.66;;;18.87;80.74
68179;BME280;69812;42.632;23.440;2023-06-26T01:09:20;94856.06;;;18.95;80.80
68179;BME280;69812;42.632;23.440;2023-06-26T01:11:46;94852.47;;;18.90;80.27
68179;BME280;69812;42.632;23.440;2023-06-26T01:14:14;94860.22;;;18.83;80.81
68179;BME280;69812;42.632;23.440;2023-06-26T01:16:40;94844.97;;;18.80;80.88
68179;BME280;69812;42.632;23.440;2023-06-26T01:19:11;94857.47;;;18.91;80.48
68179;BME280;69812;42.632;23.440;2023-06-26T01:21:42;94857.38;;;18.78;81.24
68179;BME280;69812;42.632;23.440;2023-06-26T01:24:18;94858.03;;;18.86;80.98
68179;BME280;69812;42.632;23.440;2023-06-26T01:26:49;94859.50;;;18.67;81.12
68179;BME280;69812;42.632;23.440;2023-06-26T01:29:18;94850.66;;;18.62;81.48
68179;BME280;69812;42.632;23.440;2023-06-26T01:31:44;94861.84;;;18.62;81.97
68179;BME280;69812;42.632;23.440;2023-06-26T01:34:13;94853.59;;;18.52;81.95
68179;BME280;69812;42.632;23.440;2023-06-26T01:36:39;94853.28;;;18.40;82.86
68179;BME280;69812;42.632;23.440;2023-06-26T01:39:04;94840.47;;;18.39;82.62
68179;BME280;69812;42.632;23.440;2023-06-26T01:41:30;94843.38;;;18.22;83.10
68179;BME280;69812;42.632;23.440;2023-06-26T01:49:07;94839.31;;;17.92;84.94
68179;BME280;69812;42.632;23.440;2023-06-26T01:51:41;94837.09;;;17.74;86.09
68179;BME280;69812;42.632;23.440;2023-06-26T01:54:14;94833.88;;;17.50;87.05
68179;BME280;69812;42.632;23.440;2023-06-26T01:56:43;94835.28;;;17.53;87.58
68179;BME280;69812;42.632;23.440;2023-06-26T01:59:12;94830.22;;;17.44;88.13
68179;BME280;69812;42.632;23.440;2023-06-26T02:01:40;94837.38;;;17.42;88.43
68179;BME280;69812;42.632;23.440;2023-06-26T02:04:06;94839.66;;;17.31;89.11
68179;BME280;69812;42.632;23.440;2023-06-26T02:06:31;94840.16;;;17.26;89.03
68179;BME280;69812;42.632;23.440;2023-06-26T02:08:56;94829.69;;;17.34;89.09
68179;BME280;69812;42.632;23.440;2023-06-26T02:11:22;94840.38;;;17.24;88.77
68179;BME280;69812;42.632;23.440;2023-06-26T02:13:48;94828.13;;;17.18;89.47
68179;BME280;69812;42.632;23.440;2023-06-26T02:16:13;94837.78;;;17.24;88.95
68179;BME280;69812;42.632;23.440;2023-06-26T02:18:41;94838.66;;;17.17;89.26
68179;BME280;69812;42.632;23.440;2023-06-26T02:21:07;94819.72;;;17.01;90.30
68179;BME280;69812;42.632;23.440;2023-06-26T02:23:32;94843.28;;;17.36;89.02
68179;BME280;69812;42.632;23.440;2023-06-26T02:25:57;94840.09;;;17.19;89.06
68179;BME280;69812;42.632;23.440;2023-06-26T02:28:23;94834.25;;;17.32;88.88
68179;BME280;69812;42.632;23.440;2023-06-26T02:30:48;94840.41;;;17.46;87.92
68179;BME280;69812;42.632;23.440;2023-06-26T02:33:14;94822.88;;;17.48;87.06
68179;BME280;69812;42.632;23.440;2023-06-26T02:35:44;94829.44;;;17.65;86.30
68179;BME280;69812;42.632;23.440;2023-06-26T02:38:10;94825.13;;;17.73;85.53
68179;BME280;69812;42.632;23.440;2023-06-26T02:40:35;94833.56;;;17.96;84.59
68179;BME280;69812;42.632;23.440;2023-06-26T02:43:04;94825.16;;;17.94;83.71
68179;BME280;69812;42.632;23.440;2023-06-26T02:45:32;94842.63;;;18.07;83.43
68179;BME280;69812;42.632;23.440;2023-06-26T02:47:59;94838.72;;;18.18;82.70
68179;BME280;69812;42.632;23.440;2023-06-26T02:50:25;94828.66;;;18.08;83.03
68179;BME280;69812;42.632;23.440;2023-06-26T02:52:55;94838.47;;;18.13;82.96
68179;BME280;69812;42.632;23.440;2023-06-26T02:55:28;94834.72;;;18.15;83.07
68179;BME280;69812;42.632;23.440;2023-06-26T02:57:53;94829.31;;;18.17;82.57
68179;BME280;69812;42.632;23.440;2023-06-26T03:00:19;94844.66;;;18.12;82.90
68179;BME280;69812;42.632;23.440;2023-06-26T03:02:44;94836.19;;;18.24;82.69
68179;BME280;69812;42.632;23.440;2023-06-26T03:05:12;94840.16;;;18.20;82.62
68179;BME280;69812;42.632;23.440;2023-06-26T03:07:40;94836.31;;;18.16;82.51
68179;BME280;69812;42.632;23.440;2023-06-26T03:10:06;94843.97;;;18.24;82.55
68179;BME280;69812;42.632;23.440;2023-06-26T03:12:34;94842.13;;;18.18;82.72
68179;BME280;69812;42.632;23.440;2023-06-26T03:15:02;94837.16;;;18.23;81.96
68179;BME280;69812;42.632;23.440;2023-06-26T03:17:30;94841.88;;;18.35;81.64
68179;BME280;69812;42.632;23.440;2023-06-26T03:19:55;94838.84;;;18.31;81.28
68179;BME280;69812;42.632;23.440;2023-06-26T03:22:21;94842.19;;;18.53;80.82
68179;BME280;69812;42.632;23.440;2023-06-26T03:24:48;94843.41;;;18.57;80.11
68179;BME280;69812;42.632;23.440;2023-06-26T03:27:14;94841.25;;;18.33;79.80
68179;BME280;69812;42.632;23.440;2023-06-26T03:29:45;94843.75;;;18.47;80.28
68179;BME280;69812;42.632;23.440;2023-06-26T03:32:13;94842.84;;;18.62;79.89
68179;BME280;69812;42.632;23.440;2023-06-26T03:34:38;94843.47;;;18.64;79.04
68179;BME280;69812;42.632;23.440;2023-06-26T03:37:06;94840.47;;;18.67;79.69
68179;BME280;69812;42.632;23.440;2023-06-26T03:39:33;94841.69;;;18.99;78.27
68179;BME280;69812;42.632;23.440;2023-06-26T03:42:01;94846.78;;;19.14;76.59
68179;BME280;69812;42.632;23.440;2023-06-26T03:44:27;94837.84;;;19.30;76.30
68179;BME280;69812;42.632;23.440;2023-06-26T03:46:53;94847.34;;;19.64;74.52
68179;BME280;69812;42.632;23.440;2023-06-26T03:49:18;94843.47;;;20.02;73.37
68179;BME280;69812;42.632;23.440;2023-06-26T03:51:44;94844.88;;;20.58;71.04
68179;BME280;69812;42.632;23.440;2023-06-26T03:54:12;94839.22;;;20.94;68.30
68179;BME280;69812;42.632;23.440;2023-06-26T03:56:37;94838.06;;;20.70;68.74
68179;BME280;69812;42.632;23.440;2023-06-26T03:59:03;94841.66;;;20.29;70.38
68179;BME280;69812;42.632;23.440;2023-06-26T04:01:31;94840.28;;;20.13;71.13
68179;BME280;69812;42.632;23.440;2023-06-26T04:04:01;94843.25;;;20.10;71.74
68179;BME280;69812;42.632;23.440;2023-06-26T04:06:30;94834.34;;;19.64;73.21
68179;BME280;69812;42.632;23.440;2023-06-26T04:08:59;94832.81;;;19.90;72.78
68179;BME280;69812;42.632;23.440;2023-06-26T04:11:27;94838.03;;;19.90;72.17
68179;BME280;69812;42.632;23.440;2023-06-26T04:13:54;94836.03;;;19.99;71.98
68179;BME280;69812;42.632;23.440;2023-06-26T04:16:20;94842.06;;;20.33;71.09
68179;BME280;69812;42.632;23.440;2023-06-26T04:18:46;94847.66;;;20.89;69.14
68179;BME280;69812;42.632;23.440;2023-06-26T04:21:12;94847.13;;;22.09;64.88
68179;BME280;69812;42.632;23.440;2023-06-26T04:23:50;94862.97;;;21.38;64.80
68179;BME280;69812;42.632;23.440;2023-06-26T04:26:16;94851.94;;;21.29;66.89
68179;BME280;69812;42.632;23.440;2023-06-26T04:28:42;94862.94;;;21.89;64.08
68179;BME280;69812;42.632;23.440;2023-06-26T04:31:07;94861.25;;;21.70;64.63
68179;BME280;69812;42.632;23.440;2023-06-26T04:33:34;94859.91;;;21.54;65.28
68179;BME280;69812;42.632;23.440;2023-06-26T04:36:01;94849.34;;;21.29;65.74
68179;BME280;69812;42.632;23.440;2023-06-26T04:38:30;94859.75;;;21.36;66.05
68179;BME280;69812;42.632;23.440;2023-06-26T04:40:56;94866.28;;;21.06;66.96
68179;BME280;69812;42.632;23.440;2023-06-26T04:43:21;94855.47;;;20.89;66.78
68179;BME280;69812;42.632;23.440;2023-06-26T04:45:46;94854.66;;;20.96;67.27
68179;BME280;69812;42.632;23.440;2023-06-26T04:48:12;94859.19;;;21.27;66.35
68179;BME280;69812;42.632;23.440;2023-06-26T04:50:38;94861.75;;;21.33;66.22
68179;BME280;69812;42.632;23.440;2023-06-26T04:53:06;94851.22;;;21.15;66.72
68179;BME280;69812;42.632;23.440;2023-06-26T04:55:32;94860.75;;;21.48;66.47
68179;BME280;69812;42.632;23.440;2023-06-26T04:57:57;94859.19;;;21.79;64.77
68179;BME280;69812;42.632;23.440;2023-06-26T05:00:25;94863.50;;;21.60;64.15
68179;BME280;69812;42.632;23.440;2023-06-26T05:02:51;94862.31;;;21.62;64.91
68179;BME280;69812;42.632;23.440;2023-06-26T05:05:34;94864.25;;;21.73;64.82
68179;BME280;69812;42.632;23.440;2023-06-26T05:08:13;94857.84;;;21.04;64.89
68179;BME280;69812;42.632;23.440;2023-06-26T05:10:38;94859.78;;;21.29;65.51
68179;BME280;69812;42.632;23.440;2023-06-26T05:13:04;94876.84;;;21.25;66.94
68179;BME280;69812;42.632;23.440;2023-06-26T05:15:29;94882.47;;;21.28;65.78
68179;BME280;69812;42.632;23.440;2023-06-26T05:17:54;94873.03;;;21.79;65.50
68179;BME280;69812;42.632;23.440;2023-06-26T05:20:20;94869.47;;;21.15;65.52
68179;BME280;69812;42.632;23.440;2023-06-26T05:22:45;94875.75;;;21.59;65.69
68179;BME280;69812;42.632;23.440;2023-06-26T05:25:12;94877.06;;;21.30;65.95
68179;BME280;69812;42.632;23.440;2023-06-26T05:27:38;94879.94;;;21.08;66.01
68179;BME280;69812;42.632;23.440;2023-06-26T05:30:05;94878.25;;;21.21;66.59
68179;BME280;69812;42.632;23.440;2023-06-26T05:32:34;94883.25;;;21.36;66.38
68179;BME280;69812;42.632;23.440;2023-06-26T05:35:01;94886.00;;;21.61;65.98
68179;BME280;69812;42.632;23.440;2023-06-26T05:37:29;94886.81;;;21.54;66.07
68179;BME280;69812;42.632;23.440;2023-06-26T05:39:56;94878.38;;;20.81;68.53
68179;BME280;69812;42.632;23.440;2023-06-26T05:42:21;94880.53;;;20.90;67.51
68179;BME280;69812;42.632;23.440;2023-06-26T05:44:50;94874.59;;;21.93;65.48
68179;BME280;69812;42.632;23.440;2023-06-26T05:47:15;94875.56;;;22.81;61.78
68179;BME280;69812;42.632;23.440;2023-06-26T05:49:41;94881.03;;;22.98;60.40
68179;BME280;69812;42.632;23.440;2023-06-26T05:52:06;94888.16;;;22.09;62.67
68179;BME280;69812;42.632;23.440;2023-06-26T05:54:32;94891.53;;;21.84;63.95
68179;BME280;69812;42.632;23.440;2023-06-26T05:56:58;94884.94;;;21.68;64.63
68179;BME280;69812;42.632;23.440;2023-06-26T05:59:24;94888.91;;;21.84;65.71
68179;BME280;69812;42.632;23.440;2023-06-26T06:01:51;94894.44;;;22.01;64.13
68179;BME280;69812;42.632;23.440;2023-06-26T06:04:19;94894.94;;;22.23;63.38
68179;BME280;69812;42.632;23.440;2023-06-26T06:06:45;94892.88;;;22.57;63.09
68179;BME280;69812;42.632;23.440;2023-06-26T06:09:10;94896.72;;;21.91;64.54
68179;BME280;69812;42.632;23.440;2023-06-26T06:11:35;94888.94;;;21.78;64.01
68179;BME280;69812;42.632;23.440;2023-06-26T06:14:02;94889.19;;;22.65;60.88
68179;BME280;69812;42.632;23.440;2023-06-26T06:16:28;94882.09;;;23.34;59.77
68179;BME280;69812;42.632;23.440;2023-06-26T06:18:54;94892.28;;;23.05;60.66
68179;BME280;69812;42.632;23.440;2023-06-26T06:21:20;94878.59;;;24.07;57.62
68179;BME280;69812;42.632;23.440;2023-06-26T06:23:45;94885.69;;;25.19;54.82
68179;BME280;69812;42.632;23.440;2023-06-26T06:26:13;94882.06;;;28.08;47.35
68179;BME280;69812;42.632;23.440;2023-06-26T06:28:39;94877.03;;;26.79;48.42
68179;BME280;69812;42.632;23.440;2023-06-26T06:31:04;94878.13;;;26.33;49.46
68179;BME280;69812;42.632;23.440;2023-06-26T06:33:30;94880.72;;;25.87;50.91
68179;BME280;69812;42.632;23.440;2023-06-26T06:35:55;94878.75;;;25.66;50.84
68179;BME280;69812;42.632;23.440;2023-06-26T06:38:20;94877.47;;;26.26;49.76
68179;BME280;69812;42.632;23.440;2023-06-26T06:40:46;94870.34;;;32.00;39.50
68179;BME280;69812;42.632;23.440;2023-06-26T06:43:11;94871.88;;;36.37;30.59
68179;BME280;69812;42.632;23.440;2023-06-26T06:45:36;94872.94;;;35.35;30.29
68179;BME280;69812;42.632;23.440;2023-06-26T06:48:03;94865.81;;;31.95;36.58
68179;BME280;69812;42.632;23.440;2023-06-26T06:50:29;94873.72;;;31.56;37.55
68179;BME280;69812;42.632;23.440;2023-06-26T06:52:54;94856.00;;;31.30;37.53
68179;BME280;69812;42.632;23.440;2023-06-26T06:55:19;94861.88;;;32.71;34.61
68179;BME280;69812;42.632;23.440;2023-06-26T06:57:45;94874.28;;;32.47;34.76
68179;BME280;69812;42.632;23.440;2023-06-26T07:00:12;94862.78;;;37.14;28.81
68179;BME280;69812;42.632;23.440;2023-06-26T07:02:41;94863.81;;;31.71;34.99
68179;BME280;69812;42.632;23.440;2023-06-26T07:05:07;94852.13;;;32.91;35.59
68179;BME280;69812;42.632;23.440;2023-06-26T07:07:34;94855.63;;;35.47;30.42
68179;BME280;69812;42.632;23.440;2023-06-26T07:10:07;94861.09;;;35.42;30.15
68179;BME280;69812;42.632;23.440;2023-06-26T07:12:33;94862.09;;;36.32;28.64
68179;BME280;69812;42.632;23.440;2023-06-26T07:14:59;94862.44;;;42.50;21.75
68179;BME280;69812;42.632;23.440;2023-06-26T07:17:25;94844.47;;;46.35;18.08
68179;BME280;69812;42.632;23.440;2023-06-26T07:19:50;94845.34;;;44.24;18.44
68179;BME280;69812;42.632;23.440;2023-06-26T07:22:15;94842.22;;;40.04;22.67
68179;BME280;69812;42.632;23.440;2023-06-26T07:24:41;94840.69;;;42.86;20.05
68179;BME280;69812;42.632;23.440;2023-06-26T07:27:06;94840.22;;;36.98;26.09
68179;BME280;69812;42.632;23.440;2023-06-26T07:29:32;94848.13;;;35.21;28.72
68179;BME280;69812;42.632;23.440;2023-06-26T07:31:58;94848.44;;;34.73;28.98
68179;BME280;69812;42.632;23.440;2023-06-26T07:34:23;94848.34;;;31.89;33.36
68179;BME280;69812;42.632;23.440;2023-06-26T07:36:51;94843.59;;;29.82;37.60
68179;BME280;69812;42.632;23.440;2023-06-26T07:39:16;94844.03;;;32.38;33.79
68179;BME280;69812;42.632;23.440;2023-06-26T07:41:41;94840.22;;;35.57;29.17
68179;BME280;69812;42.632;23.440;2023-06-26T07:44:07;94842.66;;;37.66;24.37
68179;BME280;69812;42.632;23.440;2023-06-26T07:46:32;94855.16;;;38.57;23.45
68179;BME280;69812;42.632;23.440;2023-06-26T07:48:57;94841.72;;;31.16;33.33
68179;BME280;69812;42.632;23.440;2023-06-26T07:51:27;94843.66;;;30.13;36.89
68179;BME280;69812;42.632;23.440;2023-06-26T07:53:52;94833.34;;;32.82;32.75
68179;BME280;69812;42.632;23.440;2023-06-26T07:56:18;94840.34;;;35.89;28.20
68179;BME280;69812;42.632;23.440;2023-06-26T07:58:43;94846.88;;;40.71;21.74
68179;BME280;69812;42.632;23.440;2023-06-26T08:01:08;94847.13;;;39.22;22.57
68179;BME280;69812;42.632;23.440;2023-06-26T08:03:34;94854.66;;;34.16;29.41
68179;BME280;69812;42.632;23.440;2023-06-26T08:05:59;94846.72;;;31.98;31.74
68179;BME280;69812;42.632;23.440;2023-06-26T08:08:28;94843.91;;;34.87;29.29
68179;BME280;69812;42.632;23.440;2023-06-26T08:10:53;94834.97;;;36.39;27.54
68179;BME280;69812;42.632;23.440;2023-06-26T08:13:18;94841.38;;;34.30;28.39
68179;BME280;69812;42.632;23.440;2023-06-26T08:15:44;94831.47;;;33.79;30.21
68179;BME280;69812;42.632;23.440;2023-06-26T08:18:09;94829.31;;;37.26;24.85
68179;BME280;69812;42.632;23.440;2023-06-26T08:20:34;94838.66;;;39.02;24.49
68179;BME280;69812;42.632;23.440;2023-06-26T08:23:03;94833.50;;;41.08;20.92
68179;BME280;69812;42.632;23.440;2023-06-26T08:25:32;94838.56;;;42.80;19.93
68179;BME280;69812;42.632;23.440;2023-06-26T08:27:57;94830.94;;;43.81;18.82
68179;BME280;69812;42.632;23.440;2023-06-26T08:30:22;94834.81;;;42.40;18.22
68179;BME280;69812;42.632;23.440;2023-06-26T08:32:53;94825.69;;;40.36;21.11
68179;BME280;69812;42.632;23.440;2023-06-26T08:35:18;94814.22;;;40.48;21.13
68179;BME280;69812;42.632;23.440;2023-06-26T08:37:43;94825.81;;;37.56;24.68
68179;BME280;69812;42.632;23.440;2023-06-26T08:40:11;94830.91;;;37.35;23.62
68179;BME280;69812;42.632;23.440;2023-06-26T08:42:39;94838.28;;;31.26;33.28
68179;BME280;69812;42.632;23.440;2023-06-26T08:45:05;94835.97;;;30.12;35.64
68179;BME280;69812;42.632;23.440;2023-06-26T08:47:34;94831.91;;;29.73;36.47
68179;BME280;69812;42.632;23.440;2023-06-26T08:56:17;94833.63;;;26.14;44.78
68179;BME280;69812;42.632;23.440;2023-06-26T08:58:44;94837.84;;;26.32;44.20
68179;BME280;69812;42.632;23.440;2023-06-26T09:01:13;94838.59;;;26.44;44.69
68179;BME280;69812;42.632;23.440;2023-06-26T09:03:39;94830.94;;;26.43;44.19
68179;BME280;69812;42.632;23.440;2023-06-26T09:06:04;94826.78;;;26.81;44.11
68179;BME280;69812;42.632;23.440;2023-06-26T09:08:29;94831.63;;;27.28;43.12
68179;BME280;69812;42.632;23.440;2023-06-26T09:10:55;94827.47;;;28.41;39.94
68179;BME280;69812;42.632;23.440;2023-06-26T09:13:20;94819.75;;;29.67;38.80
68179;BME280;69812;42.632;23.440;2023-06-26T09:15:46;94823.22;;;31.01;36.57
68179;BME280;69812;42.632;23.440;2023-06-26T09:18:12;94818.38;;;31.88;34.78
68179;BME280;69812;42.632;23.440;2023-06-26T09:20:38;94820.81;;;31.75;33.92
68179;BME280;69812;42.632;23.440;2023-06-26T09:23:04;94818.97;;;29.77;35.90
68179;BME280;69812;42.632;23.440;2023-06-26T09:25:30;94825.09;;;28.39;38.30
68179;BME280;69812;42.632;23.440;2023-06-26T09:27:56;94817.75;;;27.16;42.29
68179;BME280;69812;42.632;23.440;2023-06-26T09:30:22;94817.41;;;28.00;39.22
68179;BME280;69812;42.632;23.440;2023-06-26T09:32:47;94819.47;;;25.58;43.46
68179;BME280;69812;42.632;23.440;2023-06-26T09:35:13;94825.34;;;26.06;45.14
68179;BME280;69812;42.632;23.440;2023-06-26T09:37:38;94827.34;;;26.49;42.64
68179;BME280;69812;42.632;23.440;2023-06-26T09:40:04;94816.19;;;26.25;43.15
68179;BME280;69812;42.632;23.440;2023-06-26T09:42:30;94810.28;;;27.52;42.56
68179;BME280;69812;42.632;23.440;2023-06-26T09:44:58;94802.94;;;28.08;41.02
68179;BME280;69812;42.632;23.440;2023-06-26T09:47:25;94807.63;;;28.28;40.32
68179;BME280;69812;42.632;23.440;2023-06-26T09:49:51;94816.22;;;29.46;38.68
68179;BME280;69812;42.632;23.440;2023-06-26T09:52:20;94816.31;;;29.08;38.64
68179;BME280;69812;42.632;23.440;2023-06-26T09:54:48;94812.81;;;27.41;40.53
68179;BME280;69812;42.632;23.440;2023-06-26T09:57:15;94823.50;;;26.23;44.59
68179;BME280;69812;42.632;23.440;2023-06-26T09:59:42;94822.06;;;26.15;44.22
68179;BME280;69812;42.632;23.440;2023-06-26T10:02:08;94824.78;;;26.71;43.36
68179;BME280;69812;42.632;23.440;2023-06-26T10:04:34;94813.22;;;26.55;43.25
68179;BME280;69812;42.632;23.440;2023-06-26T10:07:05;94823.09;;;25.97;44.26
68179;BME280;69812;42.632;23.440;2023-06-26T10:09:32;94825.03;;;26.36;42.91
68179;BME280;69812;42.632;23.440;2023-06-26T10:12:03;94815.50;;;27.02;41.77
68179;BME280;69812;42.632;23.440;2023-06-26T10:14:41;94816.81;;;25.98;44.06
68179;BME280;69812;42.632;23.440;2023-06-26T10:17:10;94809.97;;;26.65;42.58
68179;BME280;69812;42.632;23.440;2023-06-26T10:19:40;94797.38;;;27.50;40.84
68179;BME280;69812;42.632;23.440;2023-06-26T10:22:07;94814.34;;;27.59;40.30
68179;BME280;69812;42.632;23.440;2023-06-26T10:24:35;94809.22;;;27.75;39.97
68179;BME280;69812;42.632;23.440;2023-06-26T10:27:07;94808.31;;;26.98;41.17
68179;BME280;69812;42.632;23.440;2023-06-26T10:29:34;94814.00;;;27.29;40.24
68179;BME280;69812;42.632;23.440;2023-06-26T10:32:02;94802.72;;;26.05;43.55
68179;BME280;69812;42.632;23.440;2023-06-26T10:34:29;94822.88;;;25.70;45.15
68179;BME280;69812;42.632;23.440;2023-06-26T10:37:06;94810.56;;;24.24;49.89
68179;BME280;69812;42.632;23.440;2023-06-26T10:39:59;94820.25;;;24.12;50.00
68179;BME280;69812;42.632;23.440;2023-06-26T10:42:37;94820.19;;;23.70;51.19
68179;BME280;69812;42.632;23.440;2023-06-26T10:45:19;94823.47;;;22.80;54.35
68179;BME280;69812;42.632;23.440;2023-06-26T10:47:48;94813.91;;;23.89;52.08
68179;BME280;69812;42.632;23.440;2023-06-26T10:50:17;94816.91;;;23.74;54.75
68179;BME280;69812;42.632;23.440;2023-06-26T10:52:44;94813.28;;;23.27;54.28
68179;BME280;69812;42.632;23.440;2023-06-26T10:55:09;94804.84;;;22.88;55.70
68179;BME280;69812;42.632;23.440;2023-06-26T10:57:36;94816.56;;;22.42;59.19
68179;BME280;69812;42.632;23.440;2023-06-26T11:00:13;94802.03;;;22.27;57.52
68179;BME280;69812;42.632;23.440;2023-06-26T11:02:51;94811.09;;;22.87;56.85
68179;BME280;69812;42.632;23.440;2023-06-26T11:05:27;94813.41;;;23.50;54.77
68179;BME280;69812;42.632;23.440;2023-06-26T11:08:13;94809.97;;;24.22;50.25
68179;BME280;69812;42.632;23.440;2023-06-26T11:10:52;94809.31;;;25.09;48.34
68179;BME280;69812;42.632;23.440;2023-06-26T11:13:18;94809.16;;;25.68;46.90
68179;BME280;69812;42.632;23.440;2023-06-26T11:15:45;94800.78;;;25.71;46.07
68179;BME280;69812;42.632;23.440;2023-06-26T11:18:12;94805.25;;;25.42;48.24
68179;BME280;69812;42.632;23.440;2023-06-26T11:20:38;94804.00;;;25.45;47.55
68179;BME280;69812;42.632;23.440;2023-06-26T11:23:04;94798.25;;;26.05;47.09
68179;BME280;69812;42.632;23.440;2023-06-26T11:25:37;94788.25;;;26.75;44.59
68179;BME280;69812;42.632;23.440;2023-06-26T11:28:04;94794.91;;;26.99;42.64
68179;BME280;69812;42.632;23.440;2023-06-26T11:30:29;94792.38;;;27.54;43.17
68179;BME280;69812;42.632;23.440;2023-06-26T11:33:09;94787.94;;;28.46;40.55
68179;BME280;69812;42.632;23.440;2023-06-26T11:35:34;94788.31;;;28.22;41.12
68179;BME280;69812;42.632;23.440;2023-06-26T11:38:02;94792.25;;;28.52;41.55
68179;BME280;69812;42.632;23.440;2023-06-26T11:40:32;94797.16;;;29.34;38.25
68179;BME280;69812;42.632;23.440;2023-06-26T11:42:58;94775.16;;;28.65;36.81
68179;BME280;69812;42.632;23.440;2023-06-26T11:45:27;94774.59;;;28.25;38.67
68179;BME280;69812;42.632;23.440;2023-06-26T11:47:54;94778.84;;;27.01;42.31
68179;BME280;69812;42.632;23.440;2023-06-26T11:50:21;94782.59;;;27.05;40.64
68179;BME280;69812;42.632;23.440;2023-06-26T11:52:53;94788.19;;;26.53;40.10
68179;BME280;69812;42.632;23.440;2023-06-26T11:55:18;94779.94;;;27.22;39.95
68179;BME280;69812;42.632;23.440;2023-06-26T11:58:09;94775.91;;;27.91;40.29
68179;BME280;69812;42.632;23.440;2023-06-26T12:00:34;94768.38;;;27.77;39.29
68179;BME280;69812;42.632;23.440;2023-06-26T12:03:00;94787.53;;;27.68;38.78
68179;BME280;69812;42.632;23.440;2023-06-26T12:05:26;94775.28;;;28.11;37.47
68179;BME280;69812;42.632;23.440;2023-06-26T12:07:52;94777.13;;;27.56;38.79
68179;BME280;69812;42.632;23.440;2023-06-26T12:10:18;94782.31;;;27.45;37.65
68179;BME280;69812;42.632;23.440;2023-06-26T12:12:45;94782.50;;;28.25;37.25
68179;BME280;69812;42.632;23.440;2023-06-26T12:15:13;94781.16;;;28.55;37.01
68179;BME280;69812;42.632;23.440;2023-06-26T12:17:40;94771.75;;;28.70;36.46
68179;BME280;69812;42.632;23.440;2023-06-26T12:20:06;94767.88;;;28.82;36.27
68179;BME280;69812;42.632;23.440;2023-06-26T12:22:42;94776.72;;;28.61;36.65
68179;BME280;69812;42.632;23.440;2023-06-26T12:25:08;94777.09;;;28.42;38.45
68179;BME280;69812;42.632;23.440;2023-06-26T12:27:35;94774.00;;;28.51;37.40
68179;BME280;69812;42.632;23.440;2023-06-26T12:30:03;94777.78;;;27.68;39.10
68179;BME280;69812;42.632;23.440;2023-06-26T12:32:31;94774.94;;;27.03;40.58
68179;BME280;69812;42.632;23.440;2023-06-26T12:34:57;94762.13;;;27.12;42.03
68179;BME280;69812;42.632;23.440;2023-06-26T12:37:23;94771.50;;;27.47;41.20
68179;BME280;69812;42.632;23.440;2023-06-26T12:39:58;94762.56;;;27.04;38.99
68179;BME280;69812;42.632;23.440;2023-06-26T12:42:25;94760.84;;;26.93;40.06
68179;BME280;69812;42.632;23.440;2023-06-26T12:44:54;94765.94;;;26.60;40.97
68179;BME280;69812;42.632;23.440;2023-06-26T12:47:26;94778.81;;;26.57;42.79
68179;BME280;69812;42.632;23.440;2023-06-26T12:49:52;94772.41;;;26.36;43.10
68179;BME280;69812;42.632;23.440;2023-06-26T12:52:19;94759.47;;;25.83;41.44
68179;BME280;69812;42.632;23.440;2023-06-26T12:54:45;94761.84;;;25.97;43.72
68179;BME280;69812;42.632;23.440;2023-06-26T12:57:12;94759.63;;;25.77;42.00
68179;BME280;69812;42.632;23.440;2023-06-26T12:59:39;94769.88;;;25.61;42.06
68179;BME280;69812;42.632;23.440;2023-06-26T13:02:05;94760.31;;;25.27;43.33